createdAt,value
2019-01-04T00:02:23.137Z,15.23
2019-01-04T00:04:49.339Z,10.40
2019-01-04T00:07:15.558Z,12.50
2019-01-04T00:09:41.762Z,12.03
2019-01-04T00:12:08.254Z,15.80
2019-01-04T00:14:34.795Z,13.30
2019-01-04T00:17:01.039Z,14.60
2019-01-04T00:19:27.263Z,11.10
2019-01-04T00:21:53.651Z,11.80
2019-01-04T00:24:19.877Z,12.00
2019-01-04T00:26:46.081Z,12.93
2019-01-04T00:29:12.303Z,12.33
2019-01-04T00:31:38.501Z,9.87
2019-01-04T00:34:04.723Z,13.40
2019-01-04T00:36:30.930Z,12.60
2019-01-04T00:38:57.982Z,14.47
2019-01-04T00:41:24.186Z,11.97
2019-01-04T00:43:50.439Z,10.37
2019-01-04T00:46:16.738Z,13.30
2019-01-04T00:48:42.963Z,11.83
2019-01-04T00:51:09.182Z,12.53
2019-01-04T00:53:35.437Z,16.47
2019-01-04T00:56:11.756Z,11.53
2019-01-04T00:59:08.031Z,13.47
2019-01-04T01:02:03.452Z,14.17
2019-01-04T01:04:45.778Z,13.07
2019-01-04T01:07:38.179Z,11.83
2019-01-04T01:10:30.406Z,12.40
2019-01-04T01:13:06.238Z,11.77
2019-01-04T01:15:52.642Z,12.30
2019-01-04T01:18:34.677Z,12.10
2019-01-04T01:21:25.615Z,12.47
2019-01-04T01:23:58.650Z,13.10
2019-01-04T01:26:31.685Z,11.30
2019-01-04T01:29:35.425Z,13.17
2019-01-04T01:32:39.075Z,11.83
2019-01-04T01:35:35.035Z,12.57
2019-01-04T01:38:21.890Z,13.37
2019-01-04T01:41:07.107Z,13.20
2019-01-04T01:43:52.411Z,12.33
2019-01-04T01:46:31.486Z,11.03
2019-01-04T01:49:26.920Z,12.83
2019-01-04T01:52:02.513Z,17.17
2019-01-04T01:54:28.724Z,18.10
2019-01-04T01:56:54.938Z,16.23
2019-01-04T01:59:21.152Z,15.37
2019-01-04T02:01:47.355Z,15.47
2019-01-04T02:04:13.574Z,18.70
2019-01-04T02:06:39.779Z,14.53
2019-01-04T02:09:07.667Z,18.43
2019-01-04T02:11:34.295Z,16.83
2019-01-04T02:14:00.506Z,18.50
2019-01-04T02:16:26.731Z,17.80
2019-01-04T02:18:53.002Z,19.17
2019-01-04T02:21:19.291Z,17.27
2019-01-04T02:23:45.557Z,20.77
2019-01-04T02:26:11.966Z,20.47
2019-01-04T02:28:38.186Z,25.40
2019-01-04T02:31:04.386Z,23.93
2019-01-04T02:33:30.612Z,27.93
2019-01-04T02:35:56.810Z,33.73
2019-01-04T02:38:23.039Z,28.90
2019-01-04T02:40:49.238Z,35.23
2019-01-04T02:43:15.458Z,36.77
2019-01-04T02:45:41.671Z,32.77
2019-01-04T02:48:27.774Z,34.33
2019-01-04T02:50:53.988Z,31.27
2019-01-04T02:53:26.234Z,32.23
2019-01-04T02:55:52.467Z,28.43
2019-01-04T02:58:18.771Z,30.40
2019-01-04T03:00:44.993Z,30.03
2019-01-04T03:03:11.191Z,28.50
2019-01-04T03:05:37.643Z,26.47
2019-01-04T03:08:03.843Z,31.63
2019-01-04T03:10:30.062Z,32.77
2019-01-04T03:12:56.292Z,28.83
2019-01-04T03:15:22.523Z,26.90
2019-01-04T03:17:48.718Z,29.17
2019-01-04T03:20:14.944Z,27.70
2019-01-04T03:22:41.142Z,28.63
2019-01-04T03:25:07.378Z,31.30
2019-01-04T03:27:33.674Z,25.13
2019-01-04T03:29:59.889Z,25.70
2019-01-04T03:32:26.116Z,24.60
2019-01-04T03:34:52.322Z,22.80
2019-01-04T03:37:18.541Z,21.03
2019-01-04T03:39:44.743Z,27.87
2019-01-04T03:42:10.969Z,23.30
2019-01-04T03:44:42.334Z,25.50
2019-01-04T03:47:08.562Z,25.93
2019-01-04T03:49:34.772Z,28.90
2019-01-04T03:52:00.995Z,24.57
2019-01-04T03:54:27.310Z,28.27
2019-01-04T03:56:53.539Z,26.90
2019-01-04T03:59:19.734Z,24.87
2019-01-04T04:01:45.978Z,26.70
2019-01-04T04:04:12.184Z,28.37
2019-01-04T04:06:38.402Z,25.67
2019-01-04T04:09:05.198Z,23.90
2019-01-04T04:11:31.402Z,26.90
2019-01-04T04:13:57.661Z,25.40
2019-01-04T04:16:39.230Z,25.07
2019-01-04T04:19:05.450Z,25.83
2019-01-04T04:21:31.662Z,21.53
2019-01-04T04:23:58.032Z,23.70
2019-01-04T04:26:24.599Z,23.97
2019-01-04T04:28:50.832Z,25.90
2019-01-04T04:31:19.726Z,25.00
2019-01-04T04:33:45.955Z,24.37
2019-01-04T04:36:12.166Z,23.00
2019-01-04T04:38:38.479Z,20.73
2019-01-04T04:41:04.683Z,20.03
2019-01-04T04:43:30.909Z,22.03
2019-01-04T04:45:57.106Z,22.90
2019-01-04T04:48:23.326Z,19.07
2019-01-04T04:50:49.851Z,19.97
2019-01-04T04:53:16.056Z,22.17
2019-01-04T04:55:42.505Z,16.53
2019-01-04T04:58:08.698Z,21.83
2019-01-04T05:00:35.014Z,17.27
2019-01-04T05:03:01.223Z,17.60
2019-01-04T05:05:27.434Z,19.40
2019-01-04T05:07:53.640Z,18.87
2019-01-04T05:10:19.879Z,18.40
2019-01-04T05:12:46.175Z,21.03
2019-01-04T05:15:12.406Z,16.37
2019-01-04T05:17:38.619Z,18.83
2019-01-04T05:20:04.829Z,21.07
2019-01-04T05:22:31.035Z,16.20
2019-01-04T05:24:57.259Z,17.97
2019-01-04T05:27:23.463Z,19.03
2019-01-04T05:29:49.659Z,20.37
2019-01-04T05:32:15.946Z,19.87
2019-01-04T05:34:42.160Z,20.73
2019-01-04T05:37:08.383Z,20.10
2019-01-04T05:39:34.590Z,23.93
2019-01-04T05:42:00.807Z,21.53
2019-01-04T05:44:27.074Z,27.57
2019-01-04T05:46:53.303Z,23.87
2019-01-04T05:49:19.517Z,25.70
2019-01-04T05:51:48.641Z,25.93
2019-01-04T05:54:14.842Z,28.57
2019-01-04T05:56:41.161Z,30.47
2019-01-04T05:59:07.370Z,26.80
2019-01-04T06:01:33.744Z,27.87
2019-01-04T06:04:00.038Z,30.37
2019-01-04T06:06:26.259Z,26.27
2019-01-04T06:08:52.458Z,25.80
2019-01-04T06:11:18.701Z,26.70
2019-01-04T06:13:44.906Z,30.13
2019-01-04T06:16:11.126Z,28.40
2019-01-04T06:18:37.330Z,29.53
2019-01-04T06:21:03.679Z,32.40
2019-01-04T06:23:34.747Z,32.17
2019-01-04T06:26:01.335Z,32.07
2019-01-04T06:28:27.540Z,37.30
2019-01-04T06:30:53.734Z,36.70
2019-01-04T06:33:20.187Z,37.63
2019-01-04T06:35:46.390Z,37.97
2019-01-04T06:38:12.611Z,71.67
2019-01-04T06:40:38.801Z,45.70
2019-01-04T06:43:05.171Z,43.60
2019-01-04T06:45:31.675Z,43.07
2019-01-04T06:47:57.894Z,42.97
2019-01-04T06:50:24.107Z,48.13
2019-01-04T06:52:50.330Z,43.63
2019-01-04T06:55:20.343Z,42.17
2019-01-04T06:57:46.602Z,39.70
2019-01-04T07:00:13.316Z,43.40
2019-01-04T07:02:39.576Z,38.93
2019-01-04T07:05:06.876Z,42.00
2019-01-04T07:07:33.133Z,38.43
2019-01-04T07:09:59.374Z,38.00
2019-01-04T07:12:25.579Z,40.07
2019-01-04T07:14:51.810Z,39.27
2019-01-04T07:17:18.014Z,38.40
2019-01-04T07:19:49.589Z,36.63
2019-01-04T07:22:15.795Z,37.03
2019-01-04T07:24:42.013Z,39.77
2019-01-04T07:27:08.232Z,35.27
2019-01-04T07:29:34.452Z,37.47
2019-01-04T07:32:00.650Z,37.73
2019-01-04T07:34:26.974Z,38.40
2019-01-04T07:36:53.176Z,36.37
2019-01-04T07:39:19.390Z,35.70
2019-01-04T07:41:45.619Z,37.17
2019-01-04T07:44:11.835Z,147.57
2019-01-04T07:46:38.073Z,65.27
2019-01-04T07:49:04.378Z,41.53
2019-01-04T07:51:30.583Z,40.00
2019-01-04T07:53:56.791Z,39.80
2019-01-04T07:56:23.015Z,39.77
2019-01-04T07:58:49.276Z,43.47
2019-01-04T08:01:15.489Z,37.87
2019-01-04T08:03:41.798Z,39.20
2019-01-04T08:06:08.250Z,37.70
2019-01-04T08:08:34.475Z,41.40
2019-01-04T08:11:00.702Z,55.27
2019-01-04T08:13:26.902Z,43.67
2019-01-04T08:15:53.123Z,41.10
2019-01-04T08:18:19.334Z,46.60
2019-01-04T08:20:45.549Z,40.30
2019-01-04T08:23:11.755Z,40.73
2019-01-04T08:25:38.070Z,39.70
2019-01-04T08:28:04.266Z,39.07
2019-01-04T08:30:30.503Z,82.40
2019-01-04T08:32:56.706Z,52.33
2019-01-04T08:35:22.902Z,40.77
2019-01-04T08:37:49.122Z,36.70
2019-01-04T08:40:15.326Z,36.30
2019-01-04T08:42:41.554Z,39.07
2019-01-04T08:45:16.670Z,36.60
2019-01-04T08:47:42.912Z,35.80
2019-01-04T08:50:09.529Z,36.60
2019-01-04T08:52:35.742Z,32.43
2019-01-04T08:55:03.360Z,30.87
2019-01-04T08:57:29.582Z,32.17
2019-01-04T08:59:58.319Z,30.87
2019-01-04T09:02:24.535Z,30.17
2019-01-04T09:04:50.871Z,30.67
2019-01-04T09:07:17.113Z,28.47
2019-01-04T09:09:43.328Z,27.77
2019-01-04T09:12:09.542Z,28.97
2019-01-04T09:14:35.855Z,27.73
2019-01-04T09:17:02.098Z,30.77
2019-01-04T09:19:28.302Z,27.87
2019-01-04T09:21:54.519Z,28.20
2019-01-04T09:24:20.739Z,29.77
2019-01-04T09:26:47.609Z,27.43
2019-01-04T09:29:14.062Z,28.93
2019-01-04T09:31:40.271Z,28.33
2019-01-04T09:34:06.491Z,29.53
2019-01-04T09:36:32.686Z,30.03
2019-01-04T09:39:03.259Z,27.37
2019-01-04T09:41:32.180Z,48.60
2019-01-04T09:43:59.296Z,31.27
2019-01-04T09:46:25.503Z,26.17
2019-01-04T09:48:51.726Z,25.40
2019-01-04T09:51:17.922Z,26.23
2019-01-04T09:53:44.139Z,27.13
2019-01-04T09:56:10.447Z,27.23
2019-01-04T09:58:36.766Z,28.53
2019-01-04T10:01:02.987Z,31.60
2019-01-04T10:03:32.151Z,29.60
2019-01-04T10:05:58.371Z,32.90
2019-01-04T10:08:24.700Z,33.33
2019-01-04T10:10:50.962Z,30.10
2019-01-04T10:13:17.490Z,31.10
2019-01-04T10:15:43.714Z,28.50
2019-01-04T10:18:09.923Z,28.20
2019-01-04T10:20:36.148Z,25.20
2019-01-04T10:23:02.351Z,25.90
2019-01-04T10:25:28.566Z,22.77
2019-01-04T10:27:54.776Z,24.90
2019-01-04T10:30:24.502Z,24.63
2019-01-04T10:32:50.801Z,23.10
2019-01-04T10:35:17.027Z,22.77
2019-01-04T10:37:43.222Z,21.27
2019-01-04T10:40:11.139Z,22.03
2019-01-04T10:42:37.554Z,22.23
2019-01-04T10:45:05.087Z,24.73
2019-01-04T10:47:31.350Z,21.30
2019-01-04T10:49:57.574Z,26.07
2019-01-04T10:52:24.142Z,24.37
2019-01-04T10:54:50.488Z,24.70
2019-01-04T10:57:16.830Z,24.07
2019-01-04T10:59:43.205Z,23.77
2019-01-04T11:02:09.427Z,24.27
2019-01-04T11:04:35.646Z,25.43
2019-01-04T11:07:01.881Z,25.30
2019-01-04T11:09:28.325Z,26.23
2019-01-04T11:11:54.671Z,25.40
2019-01-04T11:14:21.303Z,30.23
2019-01-04T11:16:47.528Z,27.47
2019-01-04T11:19:13.734Z,27.63
2019-01-04T11:21:39.943Z,28.40
2019-01-04T11:24:19.255Z,27.33
2019-01-04T11:26:48.670Z,25.43
2019-01-04T11:29:21.724Z,28.27
2019-01-04T11:32:07.142Z,26.37
2019-01-04T11:34:46.654Z,27.67
2019-01-04T11:37:25.782Z,25.47
2019-01-04T11:40:15.394Z,25.63
2019-01-04T11:43:06.658Z,26.83
2019-01-04T11:45:51.858Z,27.40
2019-01-04T11:48:27.922Z,25.03
2019-01-04T11:51:03.922Z,24.23
2019-01-04T11:53:38.794Z,25.83
2019-01-04T11:56:04.994Z,28.43
2019-01-04T11:58:31.219Z,26.83
2019-01-04T12:00:57.417Z,26.70
2019-01-04T12:03:23.727Z,26.57
2019-01-04T12:05:49.967Z,25.97
2019-01-04T12:08:16.168Z,27.30
2019-01-04T12:10:42.382Z,25.57
2019-01-04T12:13:08.586Z,27.67
2019-01-04T12:15:34.803Z,27.33
2019-01-04T12:18:01.004Z,24.87
2019-01-04T12:20:33.014Z,26.13
2019-01-04T12:22:59.214Z,26.90
2019-01-04T12:25:25.552Z,23.23
2019-01-04T12:27:51.750Z,27.80
2019-01-04T12:30:18.012Z,26.70
2019-01-04T12:32:44.211Z,26.03
2019-01-04T12:35:22.539Z,25.47
2019-01-04T12:37:48.755Z,30.37
2019-01-04T12:40:14.974Z,28.83
2019-01-04T12:42:41.183Z,33.33
2019-01-04T12:45:07.507Z,32.33
2019-01-04T12:47:34.010Z,33.60
2019-01-04T12:50:00.239Z,40.17
2019-01-04T12:52:26.464Z,34.23
2019-01-04T12:54:52.696Z,35.40
2019-01-04T12:57:18.890Z,38.00
2019-01-04T12:59:45.115Z,36.43
2019-01-04T13:02:11.365Z,38.30
2019-01-04T13:04:37.565Z,38.50
2019-01-04T13:07:03.797Z,40.57
2019-01-04T13:09:30.031Z,41.70
2019-01-04T13:11:56.239Z,43.57
2019-01-04T13:14:22.563Z,41.53
2019-01-04T13:16:48.803Z,41.63
2019-01-04T13:19:15.090Z,39.53
2019-01-04T13:21:41.311Z,39.50
2019-01-04T13:24:07.523Z,39.33
2019-01-04T13:26:33.755Z,37.33
2019-01-04T13:29:03.134Z,40.57
2019-01-04T13:31:29.375Z,45.90
2019-01-04T13:33:55.586Z,42.27
2019-01-04T13:36:21.954Z,38.53
2019-01-04T13:38:48.162Z,42.77
2019-01-04T13:41:14.610Z,41.10
2019-01-04T13:43:41.101Z,38.07
2019-01-04T13:46:07.323Z,42.97
2019-01-04T13:48:33.866Z,44.97
2019-01-04T13:51:00.086Z,42.77
2019-01-04T13:53:26.286Z,40.83
2019-01-04T13:55:52.527Z,41.20
2019-01-04T13:58:18.727Z,43.23
2019-01-04T14:00:44.967Z,45.93
2019-01-04T14:03:11.176Z,41.53
2019-01-04T14:05:37.390Z,39.70
2019-01-04T14:08:03.603Z,43.57
2019-01-04T14:10:29.823Z,41.70
2019-01-04T14:12:56.443Z,42.27
2019-01-04T14:15:22.716Z,45.37
2019-01-04T14:17:49.251Z,42.17
2019-01-04T14:20:15.493Z,40.67
2019-01-04T14:22:41.799Z,40.83
2019-01-04T14:25:08.066Z,41.43
2019-01-04T14:27:34.282Z,38.30
2019-01-04T14:30:00.490Z,42.93
2019-01-04T14:32:26.706Z,44.60
2019-01-04T14:34:53.089Z,46.07
2019-01-04T14:37:19.311Z,42.77
2019-01-04T14:39:45.514Z,46.00
2019-01-04T14:42:11.782Z,41.17
2019-01-04T14:44:37.995Z,45.43
2019-01-04T14:47:04.202Z,45.83
2019-01-04T14:49:30.443Z,45.77
2019-01-04T14:51:56.771Z,44.37
2019-01-04T14:54:22.994Z,42.97
2019-01-04T14:56:49.193Z,46.83
2019-01-04T14:59:15.422Z,45.23
2019-01-04T15:01:41.633Z,44.37
2019-01-04T15:04:12.941Z,48.07
2019-01-04T15:06:39.218Z,51.97
2019-01-04T15:09:05.850Z,55.60
2019-01-04T15:11:32.046Z,53.83
2019-01-04T15:13:58.266Z,51.77
2019-01-04T15:16:24.465Z,56.10
2019-01-04T15:18:50.692Z,51.90
2019-01-04T15:21:16.898Z,52.40
2019-01-04T15:23:43.375Z,57.73
2019-01-04T15:26:09.570Z,55.73
2019-01-04T15:28:35.799Z,54.63
2019-01-04T15:31:02.010Z,55.73
2019-01-04T15:33:48.095Z,57.83
2019-01-04T15:36:15.166Z,56.80
2019-01-04T15:38:41.382Z,61.37
2019-01-04T15:41:07.587Z,65.43
2019-01-04T15:43:33.791Z,65.67
2019-01-04T15:46:00.186Z,68.50
2019-01-04T15:48:26.456Z,64.03
2019-01-04T15:50:52.784Z,69.93
2019-01-04T15:53:19.085Z,73.37
2019-01-04T15:55:45.318Z,69.90
2019-01-04T15:58:11.518Z,68.13
2019-01-04T16:00:37.739Z,70.00
2019-01-04T16:03:03.947Z,66.90
2019-01-04T16:05:30.174Z,66.07
2019-01-04T16:07:56.449Z,64.33
2019-01-04T16:10:22.749Z,69.23
2019-01-04T16:12:48.986Z,72.87
2019-01-04T16:15:15.308Z,69.70
2019-01-04T16:17:41.670Z,78.33
2019-01-04T16:20:09.692Z,82.57
2019-01-04T16:22:35.997Z,70.70
2019-01-04T16:25:02.626Z,72.83
2019-01-04T16:27:30.070Z,74.43
2019-01-04T16:29:57.314Z,73.23
2019-01-04T16:32:23.567Z,69.70
2019-01-04T16:34:49.802Z,71.23
2019-01-04T16:37:16.026Z,69.23
2019-01-04T16:39:42.352Z,64.37
2019-01-04T16:42:08.554Z,65.93
2019-01-04T16:44:34.790Z,65.00
2019-01-04T16:47:00.995Z,59.97
2019-01-04T16:49:27.424Z,59.97
2019-01-04T16:51:53.943Z,63.43
2019-01-04T16:54:20.173Z,60.00
2019-01-04T16:56:46.372Z,62.83
2019-01-04T16:59:12.654Z,61.63
2019-01-04T17:01:38.850Z,61.77
2019-01-04T17:04:05.180Z,65.57
2019-01-04T17:06:31.378Z,66.47
2019-01-04T17:08:57.599Z,62.63
2019-01-04T17:11:23.797Z,62.47
2019-01-04T17:13:50.023Z,62.00
2019-01-04T17:16:16.321Z,59.50
2019-01-04T17:18:42.542Z,55.03
2019-01-04T17:21:08.915Z,63.77
2019-01-04T17:23:35.115Z,57.13
2019-01-04T17:26:01.338Z,61.67
2019-01-04T17:28:27.549Z,61.63
2019-01-04T17:30:54.030Z,58.47
2019-01-04T17:33:20.242Z,62.90
2019-01-04T17:35:46.662Z,56.70
2019-01-04T17:38:12.882Z,55.43
2019-01-04T17:40:40.257Z,58.07
2019-01-04T17:43:06.459Z,52.67
2019-01-04T17:45:33.734Z,52.33
2019-01-04T17:47:59.961Z,54.10
2019-01-04T17:50:26.390Z,56.10
2019-01-04T17:52:52.790Z,52.23
2019-01-04T17:55:19.402Z,53.83
2019-01-04T17:57:45.902Z,49.43
2019-01-04T18:00:13.268Z,49.37
2019-01-04T18:02:39.484Z,55.07
2019-01-04T18:05:05.714Z,54.67
2019-01-04T18:07:31.935Z,52.93
2019-01-04T18:09:58.171Z,49.20
2019-01-04T18:12:24.494Z,55.20
2019-01-04T18:14:50.751Z,54.20
2019-01-04T18:17:17.085Z,50.87
2019-01-04T18:19:43.327Z,52.47
2019-01-04T18:22:09.685Z,54.47
2019-01-04T18:24:36.122Z,85.37
2019-01-04T18:27:02.381Z,50.27
2019-01-04T18:29:28.588Z,54.07
2019-01-04T18:31:54.810Z,52.33
2019-01-04T18:34:21.039Z,51.97
2019-01-04T18:36:47.391Z,49.20
2019-01-04T18:39:13.617Z,52.77
2019-01-04T18:41:39.842Z,49.77
2019-01-04T18:44:06.070Z,49.60
2019-01-04T18:46:32.333Z,46.97
2019-01-04T18:48:58.891Z,50.67
2019-01-04T18:51:25.181Z,53.73
2019-01-04T18:53:51.548Z,49.37
2019-01-04T18:56:17.772Z,52.43
2019-01-04T18:58:44.157Z,50.57
2019-01-04T19:01:13.697Z,46.53
2019-01-04T19:03:38.502Z,43.97
2019-01-04T19:06:04.711Z,47.60
2019-01-04T19:08:30.926Z,47.83
2019-01-04T19:10:57.562Z,47.83
2019-01-04T19:13:26.844Z,45.80
2019-01-04T19:15:52.927Z,49.90
2019-01-04T19:18:19.150Z,44.27
2019-01-04T19:20:45.410Z,48.53
2019-01-04T19:23:11.863Z,48.70
2019-01-04T19:25:38.062Z,48.57
2019-01-04T19:28:04.291Z,48.47
2019-01-04T19:30:30.603Z,49.50
2019-01-04T19:32:56.831Z,47.53
2019-01-04T19:35:23.082Z,49.70
2019-01-04T19:37:49.415Z,54.03
2019-01-04T19:40:15.634Z,49.67
2019-01-04T19:42:41.840Z,53.57
2019-01-04T19:45:08.262Z,52.60
2019-01-04T19:47:34.463Z,57.73
2019-01-04T19:50:10.523Z,58.27
2019-01-04T19:52:36.892Z,57.47
2019-01-04T19:55:03.483Z,56.10
2019-01-04T19:57:29.699Z,62.83
2019-01-04T19:59:55.924Z,61.70
2019-01-04T20:02:22.121Z,100.40
2019-01-04T20:04:48.347Z,59.63
2019-01-04T20:07:32.999Z,59.17
2019-01-04T20:10:55.466Z,56.87
2019-01-04T20:13:46.054Z,60.43
2019-01-04T20:16:37.262Z,64.20
2019-01-04T20:19:23.751Z,62.20
2019-01-04T20:21:51.854Z,64.50
2019-01-04T20:24:38.298Z,60.03
2019-01-04T20:27:18.529Z,64.60
2019-01-04T20:29:49.263Z,63.97
2019-01-04T20:32:17.371Z,61.83
2019-01-04T20:34:57.361Z,60.97
2019-01-04T20:37:40.606Z,61.80
2019-01-04T20:40:08.738Z,60.33
2019-01-04T20:42:36.861Z,58.77
2019-01-04T20:45:05.787Z,60.00
2019-01-04T20:47:50.886Z,58.60
2019-01-04T20:50:19.015Z,59.40
2019-01-04T20:52:50.152Z,60.70
2019-01-04T20:55:27.639Z,57.37
2019-01-04T20:57:55.799Z,58.80
2019-01-04T21:00:29.889Z,56.57
2019-01-04T21:02:58.002Z,57.53
2019-01-04T21:05:26.134Z,55.00
2019-01-04T21:08:03.335Z,54.77
2019-01-04T21:10:34.206Z,58.23
2019-01-04T21:13:08.338Z,60.27
2019-01-04T21:15:45.340Z,59.73
2019-01-04T21:18:30.600Z,54.87
2019-01-04T21:21:15.472Z,55.00
2019-01-04T21:23:43.754Z,54.37
2019-01-04T21:26:11.857Z,54.80
2019-01-04T21:28:56.874Z,51.97
2019-01-04T21:31:41.650Z,54.83
2019-01-04T21:34:15.893Z,55.40
2019-01-04T21:37:00.971Z,55.20
2019-01-04T21:39:35.010Z,59.47
2019-01-04T21:42:05.890Z,61.27
2019-01-04T21:44:34.008Z,56.57
2019-01-04T21:47:14.205Z,53.20
2019-01-04T21:49:48.319Z,59.87
2019-01-04T21:52:16.522Z,58.60
2019-01-04T21:54:47.356Z,58.90
2019-01-04T21:57:32.130Z,61.93
2019-01-04T22:00:00.240Z,67.73
2019-01-04T22:02:31.593Z,64.23
2019-01-04T22:05:16.231Z,57.50
2019-01-04T22:07:44.351Z,56.30
2019-01-04T22:10:30.806Z,61.03
2019-01-04T22:13:01.958Z,57.93
2019-01-04T22:15:32.690Z,55.97
2019-01-04T22:18:18.885Z,65.97
2019-01-04T22:20:52.794Z,61.23
2019-01-04T22:23:36.094Z,57.40
2019-01-04T22:26:16.511Z,65.50
2019-01-04T22:28:56.693Z,62.37
2019-01-04T22:31:43.237Z,63.10
2019-01-04T22:34:23.490Z,63.73
2019-01-04T22:36:51.607Z,62.20
2019-01-04T22:39:32.155Z,62.17
2019-01-04T22:42:03.150Z,68.13
2019-01-04T22:44:34.026Z,64.90
2019-01-04T22:47:20.178Z,66.83
2019-01-04T22:50:00.358Z,71.23
2019-01-04T22:52:37.395Z,65.97
2019-01-04T22:55:11.363Z,62.80
2019-01-04T22:57:39.494Z,58.57
2019-01-04T23:00:26.042Z,61.60
2019-01-04T23:02:54.150Z,64.20
2019-01-04T23:05:34.390Z,70.57
2019-01-04T23:08:20.826Z,67.37
2019-01-04T23:11:05.638Z,58.87
2019-01-04T23:13:42.674Z,65.13
2019-01-04T23:16:16.946Z,61.23
2019-01-04T23:19:03.733Z,58.77
2019-01-04T23:22:07.431Z,60.93
2019-01-04T23:24:38.338Z,56.23
2019-01-04T23:27:15.214Z,58.10
2019-01-04T23:29:52.213Z,59.60
2019-01-04T23:32:26.259Z,61.33
2019-01-04T23:35:24.746Z,64.07
2019-01-04T23:38:09.563Z,63.80
2019-01-04T23:40:47.196Z,60.40
2019-01-04T23:43:33.914Z,63.37
2019-01-04T23:46:02.009Z,61.87
2019-01-04T23:48:30.274Z,61.33
2019-01-04T23:51:01.362Z,59.60
2019-01-04T23:53:32.293Z,61.27
2019-01-04T23:56:09.370Z,56.90
2019-01-04T23:58:37.594Z,64.73
